sensor_id;sensor_type;location;lat;lon;timestamp;P1;durP1;ratioP1;P2;durP2;ratioP2
26474;SDS011;14161;52.270;10.334;2023-04-15T00:00:23;2.55;;;2.33;;
26474;SDS011;14161;52.270;10.334;2023-04-15T00:02:50;2.45;;;2.17;;
26474;SDS011;14161;52.270;10.334;2023-04-15T00:05:15;2.40;;;2.20;;
26474;SDS011;14161;52.270;10.334;2023-04-15T00:07:41;3.15;;;2.60;;
26474;SDS011;14161;52.270;10.334;2023-04-15T00:10:06;3.92;;;2.50;;
26474;SDS011;14161;52.270;10.334;2023-04-15T00:12:32;3.97;;;2.15;;
26474;SDS011;14161;52.270;10.334;2023-04-15T00:14:57;2.92;;;2.25;;
26474;SDS011;14161;52.270;10.334;2023-04-15T00:17:23;4.70;;;2.63;;
26474;SDS011;14161;52.270;10.334;2023-04-15T00:19:48;3.63;;;2.80;;
26474;SDS011;14161;52.270;10.334;2023-04-15T00:22:14;4.95;;;2.70;;
26474;SDS011;14161;52.270;10.334;2023-04-15T00:24:40;3.45;;;2.95;;
26474;SDS011;14161;52.270;10.334;2023-04-15T00:27:05;22.23;;;10.57;;
26474;SDS011;14161;52.270;10.334;2023-04-15T00:29:32;18.27;;;9.80;;
26474;SDS011;14161;52.270;10.334;2023-04-15T00:31:58;7.22;;;4.90;;
26474;SDS011;14161;52.270;10.334;2023-04-15T00:34:23;5.88;;;3.78;;
26474;SDS011;14161;52.270;10.334;2023-04-15T00:36:52;3.78;;;3.10;;
26474;SDS011;14161;52.270;10.334;2023-04-15T00:39:18;3.58;;;2.95;;
26474;SDS011;14161;52.270;10.334;2023-04-15T00:41:43;4.93;;;3.08;;
26474;SDS011;14161;52.270;10.334;2023-04-15T00:44:10;3.60;;;2.95;;
26474;SDS011;14161;52.270;10.334;2023-04-15T00:46:36;3.45;;;3.05;;
26474;SDS011;14161;52.270;10.334;2023-04-15T00:49:04;3.10;;;2.60;;
26474;SDS011;14161;52.270;10.334;2023-04-15T00:51:31;3.65;;;2.92;;
26474;SDS011;14161;52.270;10.334;2023-04-15T00:54:00;3.28;;;2.83;;
26474;SDS011;14161;52.270;10.334;2023-04-15T00:56:26;3.03;;;2.67;;
26474;SDS011;14161;52.270;10.334;2023-04-15T00:58:53;3.80;;;3.00;;
26474;SDS011;14161;52.270;10.334;2023-04-15T01:01:22;3.55;;;2.88;;
26474;SDS011;14161;52.270;10.334;2023-04-15T01:03:49;4.47;;;2.85;;
26474;SDS011;14161;52.270;10.334;2023-04-15T01:06:15;3.40;;;2.78;;
26474;SDS011;14161;52.270;10.334;2023-04-15T01:08:41;3.30;;;2.90;;
26474;SDS011;14161;52.270;10.334;2023-04-15T01:11:07;3.78;;;3.08;;
26474;SDS011;14161;52.270;10.334;2023-04-15T01:13:33;8.48;;;5.78;;
26474;SDS011;14161;52.270;10.334;2023-04-15T01:15:59;7.47;;;5.05;;
26474;SDS011;14161;52.270;10.334;2023-04-15T01:18:26;5.28;;;4.38;;
26474;SDS011;14161;52.270;10.334;2023-04-15T01:20:52;4.88;;;3.80;;
26474;SDS011;14161;52.270;10.334;2023-04-15T01:23:17;6.05;;;4.20;;
26474;SDS011;14161;52.270;10.334;2023-04-15T01:25:43;4.88;;;3.72;;
26474;SDS011;14161;52.270;10.334;2023-04-15T01:28:09;4.32;;;3.60;;
26474;SDS011;14161;52.270;10.334;2023-04-15T01:30:35;5.05;;;3.75;;
26474;SDS011;14161;52.270;10.334;2023-04-15T01:33:00;5.50;;;3.63;;
26474;SDS011;14161;52.270;10.334;2023-04-15T01:35:26;6.40;;;4.65;;
26474;SDS011;14161;52.270;10.334;2023-04-15T01:37:52;4.32;;;3.78;;
26474;SDS011;14161;52.270;10.334;2023-04-15T01:40:19;4.45;;;4.03;;
26474;SDS011;14161;52.270;10.334;2023-04-15T01:42:44;5.38;;;4.38;;
26474;SDS011;14161;52.270;10.334;2023-04-15T01:45:10;4.75;;;4.00;;
26474;SDS011;14161;52.270;10.334;2023-04-15T01:47:37;4.45;;;3.78;;
26474;SDS011;14161;52.270;10.334;2023-04-15T01:50:02;4.80;;;4.07;;
26474;SDS011;14161;52.270;10.334;2023-04-15T01:52:28;4.60;;;3.92;;
26474;SDS011;14161;52.270;10.334;2023-04-15T01:54:55;6.63;;;4.25;;
26474;SDS011;14161;52.270;10.334;2023-04-15T01:57:21;5.25;;;4.38;;
26474;SDS011;14161;52.270;10.334;2023-04-15T01:59:46;7.22;;;4.85;;
26474;SDS011;14161;52.270;10.334;2023-04-15T02:02:13;9.88;;;6.90;;
26474;SDS011;14161;52.270;10.334;2023-04-15T02:04:39;8.88;;;5.60;;
26474;SDS011;14161;52.270;10.334;2023-04-15T02:07:04;7.50;;;5.10;;
26474;SDS011;14161;52.270;10.334;2023-04-15T02:09:31;5.18;;;4.47;;
26474;SDS011;14161;52.270;10.334;2023-04-15T02:11:56;5.22;;;4.50;;
26474;SDS011;14161;52.270;10.334;2023-04-15T02:14:22;5.20;;;4.53;;
26474;SDS011;14161;52.270;10.334;2023-04-15T02:16:48;5.38;;;4.40;;
26474;SDS011;14161;52.270;10.334;2023-04-15T02:19:14;6.40;;;4.63;;
26474;SDS011;14161;52.270;10.334;2023-04-15T02:21:40;8.18;;;6.40;;
26474;SDS011;14161;52.270;10.334;2023-04-15T02:24:06;9.43;;;6.30;;
26474;SDS011;14161;52.270;10.334;2023-04-15T02:26:32;6.75;;;5.38;;
26474;SDS011;14161;52.270;10.334;2023-04-15T02:28:57;7.18;;;5.78;;
26474;SDS011;14161;52.270;10.334;2023-04-15T02:31:23;8.50;;;6.38;;
26474;SDS011;14161;52.270;10.334;2023-04-15T02:33:50;6.50;;;5.85;;
26474;SDS011;14161;52.270;10.334;2023-04-15T02:36:16;8.35;;;6.93;;
26474;SDS011;14161;52.270;10.334;2023-04-15T02:38:42;6.70;;;5.70;;
26474;SDS011;14161;52.270;10.334;2023-04-15T02:41:08;8.57;;;6.70;;
26474;SDS011;14161;52.270;10.334;2023-04-15T02:43:36;7.35;;;6.05;;
26474;SDS011;14161;52.270;10.334;2023-04-15T02:46:04;9.43;;;6.97;;
26474;SDS011;14161;52.270;10.334;2023-04-15T02:48:29;8.68;;;6.85;;
26474;SDS011;14161;52.270;10.334;2023-04-15T02:51:14;9.73;;;7.32;;
26474;SDS011;14161;52.270;10.334;2023-04-15T02:53:47;10.73;;;8.20;;
26474;SDS011;14161;52.270;10.334;2023-04-15T02:56:13;10.23;;;7.63;;
26474;SDS011;14161;52.270;10.334;2023-04-15T02:58:40;9.73;;;7.65;;
26474;SDS011;14161;52.270;10.334;2023-04-15T03:01:06;10.10;;;7.80;;
26474;SDS011;14161;52.270;10.334;2023-04-15T03:03:33;12.00;;;8.23;;
26474;SDS011;14161;52.270;10.334;2023-04-15T03:05:58;12.20;;;8.43;;
26474;SDS011;14161;52.270;10.334;2023-04-15T03:08:24;9.93;;;7.63;;
26474;SDS011;14161;52.270;10.334;2023-04-15T03:10:49;10.48;;;7.90;;
26474;SDS011;14161;52.270;10.334;2023-04-15T03:13:17;9.32;;;7.53;;
26474;SDS011;14161;52.270;10.334;2023-04-15T03:15:45;9.13;;;6.90;;
26474;SDS011;14161;52.270;10.334;2023-04-15T03:18:10;9.68;;;7.15;;
26474;SDS011;14161;52.270;10.334;2023-04-15T03:20:39;10.98;;;7.53;;
26474;SDS011;14161;52.270;10.334;2023-04-15T03:23:05;8.60;;;6.65;;
26474;SDS011;14161;52.270;10.334;2023-04-15T03:25:31;8.48;;;6.68;;
26474;SDS011;14161;52.270;10.334;2023-04-15T03:27:58;8.80;;;6.60;;
26474;SDS011;14161;52.270;10.334;2023-04-15T03:30:25;8.98;;;6.75;;
26474;SDS011;14161;52.270;10.334;2023-04-15T03:32:50;8.65;;;7.18;;
26474;SDS011;14161;52.270;10.334;2023-04-15T03:35:18;8.93;;;7.28;;
26474;SDS011;14161;52.270;10.334;2023-04-15T03:37:44;8.60;;;6.93;;
26474;SDS011;14161;52.270;10.334;2023-04-15T03:40:09;21.45;;;12.65;;
26474;SDS011;14161;52.270;10.334;2023-04-15T03:42:35;43.90;;;19.20;;
26474;SDS011;14161;52.270;10.334;2023-04-15T03:45:01;20.92;;;12.32;;
26474;SDS011;14161;52.270;10.334;2023-04-15T03:47:26;11.85;;;8.32;;
26474;SDS011;14161;52.270;10.334;2023-04-15T03:49:52;9.38;;;7.35;;
26474;SDS011;14161;52.270;10.334;2023-04-15T03:52:17;9.07;;;7.18;;
26474;SDS011;14161;52.270;10.334;2023-04-15T03:54:42;9.80;;;7.15;;
26474;SDS011;14161;52.270;10.334;2023-04-15T03:57:08;9.55;;;7.53;;
26474;SDS011;14161;52.270;10.334;2023-04-15T03:59:33;8.95;;;6.95;;
26474;SDS011;14161;52.270;10.334;2023-04-15T04:01:59;11.70;;;8.30;;
26474;SDS011;14161;52.270;10.334;2023-04-15T04:04:25;10.07;;;7.85;;
26474;SDS011;14161;52.270;10.334;2023-04-15T04:06:50;11.38;;;8.75;;
26474;SDS011;14161;52.270;10.334;2023-04-15T04:09:16;9.82;;;7.47;;
26474;SDS011;14161;52.270;10.334;2023-04-15T04:11:41;11.32;;;9.40;;
26474;SDS011;14161;52.270;10.334;2023-04-15T04:14:07;10.20;;;8.27;;
26474;SDS011;14161;52.270;10.334;2023-04-15T04:16:32;9.70;;;7.95;;
26474;SDS011;14161;52.270;10.334;2023-04-15T04:18:57;8.88;;;7.03;;
26474;SDS011;14161;52.270;10.334;2023-04-15T04:21:23;8.02;;;6.70;;
26474;SDS011;14161;52.270;10.334;2023-04-15T04:23:48;9.27;;;7.65;;
26474;SDS011;14161;52.270;10.334;2023-04-15T04:26:14;16.27;;;10.60;;
26474;SDS011;14161;52.270;10.334;2023-04-15T04:28:40;15.75;;;9.95;;
26474;SDS011;14161;52.270;10.334;2023-04-15T04:31:06;10.75;;;8.43;;
26474;SDS011;14161;52.270;10.334;2023-04-15T04:33:32;11.90;;;8.32;;
26474;SDS011;14161;52.270;10.334;2023-04-15T04:35:57;11.43;;;8.98;;
26474;SDS011;14161;52.270;10.334;2023-04-15T04:38:23;11.07;;;8.55;;
26474;SDS011;14161;52.270;10.334;2023-04-15T04:40:48;9.95;;;8.00;;
26474;SDS011;14161;52.270;10.334;2023-04-15T04:43:14;10.15;;;8.25;;
26474;SDS011;14161;52.270;10.334;2023-04-15T04:45:40;8.88;;;7.75;;
26474;SDS011;14161;52.270;10.334;2023-04-15T04:48:06;10.27;;;8.27;;
26474;SDS011;14161;52.270;10.334;2023-04-15T04:50:33;12.27;;;9.05;;
26474;SDS011;14161;52.270;10.334;2023-04-15T04:52:59;11.20;;;8.68;;
26474;SDS011;14161;52.270;10.334;2023-04-15T04:55:25;9.73;;;7.93;;
26474;SDS011;14161;52.270;10.334;2023-04-15T04:57:51;11.15;;;8.57;;
26474;SDS011;14161;52.270;10.334;2023-04-15T05:00:17;13.10;;;9.13;;
26474;SDS011;14161;52.270;10.334;2023-04-15T05:02:43;10.80;;;8.57;;
26474;SDS011;14161;52.270;10.334;2023-04-15T05:05:09;10.52;;;8.43;;
26474;SDS011;14161;52.270;10.334;2023-04-15T05:07:36;10.85;;;7.72;;
26474;SDS011;14161;52.270;10.334;2023-04-15T05:10:02;10.75;;;7.97;;
26474;SDS011;14161;52.270;10.334;2023-04-15T05:12:28;11.25;;;8.75;;
26474;SDS011;14161;52.270;10.334;2023-04-15T05:14:53;9.20;;;7.60;;
26474;SDS011;14161;52.270;10.334;2023-04-15T05:17:19;13.13;;;8.98;;
26474;SDS011;14161;52.270;10.334;2023-04-15T05:19:44;11.70;;;9.30;;
26474;SDS011;14161;52.270;10.334;2023-04-15T05:22:10;11.75;;;9.30;;
26474;SDS011;14161;52.270;10.334;2023-04-15T05:24:35;12.13;;;9.30;;
26474;SDS011;14161;52.270;10.334;2023-04-15T05:27:01;11.50;;;9.18;;
26474;SDS011;14161;52.270;10.334;2023-04-15T05:29:26;11.30;;;8.18;;
26474;SDS011;14161;52.270;10.334;2023-04-15T05:31:52;19.00;;;11.30;;
26474;SDS011;14161;52.270;10.334;2023-04-15T05:34:17;14.57;;;10.20;;
26474;SDS011;14161;52.270;10.334;2023-04-15T05:36:43;11.90;;;9.05;;
26474;SDS011;14161;52.270;10.334;2023-04-15T05:39:08;11.32;;;8.63;;
26474;SDS011;14161;52.270;10.334;2023-04-15T05:41:33;12.07;;;9.02;;
26474;SDS011;14161;52.270;10.334;2023-04-15T05:43:59;11.52;;;9.05;;
26474;SDS011;14161;52.270;10.334;2023-04-15T05:46:25;12.32;;;9.45;;
26474;SDS011;14161;52.270;10.334;2023-04-15T05:48:51;13.15;;;9.73;;
26474;SDS011;14161;52.270;10.334;2023-04-15T05:51:17;12.73;;;9.55;;
26474;SDS011;14161;52.270;10.334;2023-04-15T05:53:42;10.85;;;9.10;;
26474;SDS011;14161;52.270;10.334;2023-04-15T05:56:07;14.60;;;9.70;;
26474;SDS011;14161;52.270;10.334;2023-04-15T05:58:33;12.18;;;9.52;;
26474;SDS011;14161;52.270;10.334;2023-04-15T06:00:58;10.48;;;8.23;;
26474;SDS011;14161;52.270;10.334;2023-04-15T06:03:24;9.25;;;7.40;;
26474;SDS011;14161;52.270;10.334;2023-04-15T06:05:49;8.65;;;7.50;;
26474;SDS011;14161;52.270;10.334;2023-04-15T06:08:15;9.82;;;8.02;;
26474;SDS011;14161;52.270;10.334;2023-04-15T06:10:41;8.98;;;7.00;;
26474;SDS011;14161;52.270;10.334;2023-04-15T06:13:06;10.40;;;8.18;;
26474;SDS011;14161;52.270;10.334;2023-04-15T06:15:32;12.43;;;9.65;;
26474;SDS011;14161;52.270;10.334;2023-04-15T06:17:57;11.73;;;9.02;;
26474;SDS011;14161;52.270;10.334;2023-04-15T06:20:23;10.63;;;8.10;;
26474;SDS011;14161;52.270;10.334;2023-04-15T06:22:48;11.52;;;8.50;;
26474;SDS011;14161;52.270;10.334;2023-04-15T06:25:14;10.40;;;7.97;;
26474;SDS011;14161;52.270;10.334;2023-04-15T06:27:39;9.45;;;6.78;;
26474;SDS011;14161;52.270;10.334;2023-04-15T06:30:05;8.93;;;7.05;;
26474;SDS011;14161;52.270;10.334;2023-04-15T06:32:31;8.55;;;7.03;;
26474;SDS011;14161;52.270;10.334;2023-04-15T06:34:57;7.80;;;6.10;;
26474;SDS011;14161;52.270;10.334;2023-04-15T06:37:22;8.43;;;5.70;;
26474;SDS011;14161;52.270;10.334;2023-04-15T06:39:48;7.70;;;6.45;;
26474;SDS011;14161;52.270;10.334;2023-04-15T06:42:13;6.90;;;5.32;;
26474;SDS011;14161;52.270;10.334;2023-04-15T06:44:39;10.10;;;7.18;;
26474;SDS011;14161;52.270;10.334;2023-04-15T06:47:05;8.45;;;5.90;;
26474;SDS011;14161;52.270;10.334;2023-04-15T06:49:30;6.88;;;5.63;;
26474;SDS011;14161;52.270;10.334;2023-04-15T06:51:56;8.25;;;6.47;;
26474;SDS011;14161;52.270;10.334;2023-04-15T06:54:21;6.95;;;5.47;;
26474;SDS011;14161;52.270;10.334;2023-04-15T06:56:47;7.72;;;5.82;;
26474;SDS011;14161;52.270;10.334;2023-04-15T06:59:13;7.63;;;6.40;;
26474;SDS011;14161;52.270;10.334;2023-04-15T07:01:41;7.00;;;5.55;;
26474;SDS011;14161;52.270;10.334;2023-04-15T07:04:06;6.75;;;5.38;;
26474;SDS011;14161;52.270;10.334;2023-04-15T07:06:32;6.93;;;5.25;;
26474;SDS011;14161;52.270;10.334;2023-04-15T07:08:58;6.97;;;5.57;;
26474;SDS011;14161;52.270;10.334;2023-04-15T07:11:24;6.35;;;4.80;;
26474;SDS011;14161;52.270;10.334;2023-04-15T07:13:50;6.43;;;4.88;;
26474;SDS011;14161;52.270;10.334;2023-04-15T07:16:15;7.57;;;5.43;;
26474;SDS011;14161;52.270;10.334;2023-04-15T07:18:41;5.95;;;4.82;;
26474;SDS011;14161;52.270;10.334;2023-04-15T07:21:07;7.72;;;5.88;;
26474;SDS011;14161;52.270;10.334;2023-04-15T07:23:32;6.43;;;5.05;;
26474;SDS011;14161;52.270;10.334;2023-04-15T07:25:58;6.18;;;4.82;;
26474;SDS011;14161;52.270;10.334;2023-04-15T07:28:24;6.10;;;4.55;;
26474;SDS011;14161;52.270;10.334;2023-04-15T07:30:49;5.30;;;4.38;;
26474;SDS011;14161;52.270;10.334;2023-04-15T07:33:15;7.03;;;5.47;;
26474;SDS011;14161;52.270;10.334;2023-04-15T07:35:41;16.23;;;9.23;;
26474;SDS011;14161;52.270;10.334;2023-04-15T07:38:06;15.35;;;8.48;;
26474;SDS011;14161;52.270;10.334;2023-04-15T07:40:32;7.45;;;4.78;;
26474;SDS011;14161;52.270;10.334;2023-04-15T07:42:58;6.18;;;4.53;;
26474;SDS011;14161;52.270;10.334;2023-04-15T07:45:23;4.53;;;3.88;;
26474;SDS011;14161;52.270;10.334;2023-04-15T07:47:49;4.63;;;3.97;;
26474;SDS011;14161;52.270;10.334;2023-04-15T07:50:17;4.50;;;3.70;;
26474;SDS011;14161;52.270;10.334;2023-04-15T07:52:43;5.18;;;3.85;;
26474;SDS011;14161;52.270;10.334;2023-04-15T07:55:09;6.68;;;5.03;;
26474;SDS011;14161;52.270;10.334;2023-04-15T07:57:35;5.32;;;3.70;;
26474;SDS011;14161;52.270;10.334;2023-04-15T08:00:01;7.30;;;4.68;;
26474;SDS011;14161;52.270;10.334;2023-04-15T08:02:38;4.97;;;3.75;;
26474;SDS011;14161;52.270;10.334;2023-04-15T08:05:04;6.68;;;4.18;;
26474;SDS011;14161;52.270;10.334;2023-04-15T08:07:30;4.63;;;3.75;;
26474;SDS011;14161;52.270;10.334;2023-04-15T08:09:55;4.13;;;3.42;;
26474;SDS011;14161;52.270;10.334;2023-04-15T08:12:21;4.28;;;3.03;;
26474;SDS011;14161;52.270;10.334;2023-04-15T08:14:47;3.70;;;3.20;;
26474;SDS011;14161;52.270;10.334;2023-04-15T08:17:12;3.20;;;2.88;;
26474;SDS011;14161;52.270;10.334;2023-04-15T08:19:38;6.35;;;3.25;;
26474;SDS011;14161;52.270;10.334;2023-04-15T08:22:04;3.72;;;2.88;;
26474;SDS011;14161;52.270;10.334;2023-04-15T08:24:30;3.92;;;3.30;;
26474;SDS011;14161;52.270;10.334;2023-04-15T08:26:56;3.00;;;2.70;;
26474;SDS011;14161;52.270;10.334;2023-04-15T08:29:22;3.88;;;3.20;;
26474;SDS011;14161;52.270;10.334;2023-04-15T08:31:47;3.42;;;2.97;;
26474;SDS011;14161;52.270;10.334;2023-04-15T08:34:13;3.90;;;3.50;;
26474;SDS011;14161;52.270;10.334;2023-04-15T08:36:39;4.38;;;3.55;;
26474;SDS011;14161;52.270;10.334;2023-04-15T08:39:04;3.60;;;3.03;;
26474;SDS011;14161;52.270;10.334;2023-04-15T08:41:33;3.28;;;2.88;;
26474;SDS011;14161;52.270;10.334;2023-04-15T08:44:05;4.25;;;3.28;;
26474;SDS011;14161;52.270;10.334;2023-04-15T08:46:30;5.75;;;3.30;;
26474;SDS011;14161;52.270;10.334;2023-04-15T08:48:59;3.38;;;3.00;;
26474;SDS011;14161;52.270;10.334;2023-04-15T08:51:25;4.22;;;3.30;;
26474;SDS011;14161;52.270;10.334;2023-04-15T08:53:51;3.42;;;2.95;;
26474;SDS011;14161;52.270;10.334;2023-04-15T08:56:17;3.63;;;3.15;;
26474;SDS011;14161;52.270;10.334;2023-04-15T08:58:43;4.03;;;3.20;;
26474;SDS011;14161;52.270;10.334;2023-04-15T09:01:10;3.58;;;2.90;;
26474;SDS011;14161;52.270;10.334;2023-04-15T09:03:36;5.20;;;3.92;;
26474;SDS011;14161;52.270;10.334;2023-04-15T09:06:03;3.63;;;3.10;;
26474;SDS011;14161;52.270;10.334;2023-04-15T09:08:30;3.97;;;3.47;;
26474;SDS011;14161;52.270;10.334;2023-04-15T09:10:55;6.32;;;4.38;;
26474;SDS011;14161;52.270;10.334;2023-04-15T09:13:21;4.80;;;4.15;;
26474;SDS011;14161;52.270;10.334;2023-04-15T09:15:46;4.47;;;3.60;;
26474;SDS011;14161;52.270;10.334;2023-04-15T09:18:13;5.28;;;4.45;;
26474;SDS011;14161;52.270;10.334;2023-04-15T09:20:52;6.25;;;4.60;;
26474;SDS011;14161;52.270;10.334;2023-04-15T09:23:17;6.43;;;5.20;;
26474;SDS011;14161;52.270;10.334;2023-04-15T09:25:42;5.70;;;4.90;;
26474;SDS011;14161;52.270;10.334;2023-04-15T09:28:10;7.60;;;4.95;;
26474;SDS011;14161;52.270;10.334;2023-04-15T09:30:36;5.07;;;4.18;;
26474;SDS011;14161;52.270;10.334;2023-04-15T09:33:02;6.25;;;5.03;;
26474;SDS011;14161;52.270;10.334;2023-04-15T09:35:37;6.10;;;4.63;;
26474;SDS011;14161;52.270;10.334;2023-04-15T09:38:04;7.10;;;5.07;;
26474;SDS011;14161;52.270;10.334;2023-04-15T09:40:37;7.03;;;5.18;;
26474;SDS011;14161;52.270;10.334;2023-04-15T09:43:13;7.57;;;5.28;;
26474;SDS011;14161;52.270;10.334;2023-04-15T09:45:52;8.98;;;6.65;;
26474;SDS011;14161;52.270;10.334;2023-04-15T09:48:21;7.40;;;5.65;;
26474;SDS011;14161;52.270;10.334;2023-04-15T09:50:50;7.72;;;5.82;;
26474;SDS011;14161;52.270;10.334;2023-04-15T09:53:21;8.25;;;6.32;;
26474;SDS011;14161;52.270;10.334;2023-04-15T09:55:49;8.15;;;6.45;;
26474;SDS011;14161;52.270;10.334;2023-04-15T09:58:22;9.35;;;7.47;;
26474;SDS011;14161;52.270;10.334;2023-04-15T10:00:52;10.63;;;7.35;;
26474;SDS011;14161;52.270;10.334;2023-04-15T10:03:19;8.13;;;6.63;;
26474;SDS011;14161;52.270;10.334;2023-04-15T10:05:48;9.77;;;7.10;;
26474;SDS011;14161;52.270;10.334;2023-04-15T10:08:15;9.38;;;7.07;;
26474;SDS011;14161;52.270;10.334;2023-04-15T10:10:42;13.48;;;9.45;;
26474;SDS011;14161;52.270;10.334;2023-04-15T10:13:08;12.50;;;9.45;;
26474;SDS011;14161;52.270;10.334;2023-04-15T10:15:35;12.23;;;9.65;;
26474;SDS011;14161;52.270;10.334;2023-04-15T10:18:01;12.18;;;9.38;;
26474;SDS011;14161;52.270;10.334;2023-04-15T10:20:28;12.32;;;9.45;;
26474;SDS011;14161;52.270;10.334;2023-04-15T10:22:54;13.07;;;9.98;;
26474;SDS011;14161;52.270;10.334;2023-04-15T10:25:20;13.88;;;10.85;;
26474;SDS011;14161;52.270;10.334;2023-04-15T10:27:47;17.33;;;12.80;;
26474;SDS011;14161;52.270;10.334;2023-04-15T10:30:12;17.58;;;12.15;;
26474;SDS011;14161;52.270;10.334;2023-04-15T10:32:38;15.90;;;11.50;;
26474;SDS011;14161;52.270;10.334;2023-04-15T10:35:04;15.38;;;11.38;;
26474;SDS011;14161;52.270;10.334;2023-04-15T10:37:36;14.32;;;10.50;;
26474;SDS011;14161;52.270;10.334;2023-04-15T10:42:58;15.38;;;11.15;;
26474;SDS011;14161;52.270;10.334;2023-04-15T10:45:25;14.98;;;10.73;;
26474;SDS011;14161;52.270;10.334;2023-04-15T10:47:55;14.32;;;10.65;;
26474;SDS011;14161;52.270;10.334;2023-04-15T10:50:21;16.30;;;11.07;;
26474;SDS011;14161;52.270;10.334;2023-04-15T10:52:51;19.98;;;12.98;;
26474;SDS011;14161;52.270;10.334;2023-04-15T10:55:26;15.32;;;11.70;;
26474;SDS011;14161;52.270;10.334;2023-04-15T10:57:57;16.08;;;11.95;;
26474;SDS011;14161;52.270;10.334;2023-04-15T11:00:25;16.00;;;11.38;;
26474;SDS011;14161;52.270;10.334;2023-04-15T11:02:56;14.43;;;11.50;;
26474;SDS011;14161;52.270;10.334;2023-04-15T11:08:03;17.88;;;12.18;;
26474;SDS011;14161;52.270;10.334;2023-04-15T11:13:12;17.30;;;12.45;;
26474;SDS011;14161;52.270;10.334;2023-04-15T11:15:44;18.20;;;12.32;;
26474;SDS011;14161;52.270;10.334;2023-04-15T11:23:19;18.40;;;12.80;;
26474;SDS011;14161;52.270;10.334;2023-04-15T11:26:01;17.17;;;12.10;;
26474;SDS011;14161;52.270;10.334;2023-04-15T11:28:30;19.23;;;14.45;;
26474;SDS011;14161;52.270;10.334;2023-04-15T11:30:56;17.63;;;13.75;;
26474;SDS011;14161;52.270;10.334;2023-04-15T11:33:22;18.75;;;13.95;;
26474;SDS011;14161;52.270;10.334;2023-04-15T11:35:48;20.23;;;13.85;;
26474;SDS011;14161;52.270;10.334;2023-04-15T11:38:14;21.10;;;14.85;;
26474;SDS011;14161;52.270;10.334;2023-04-15T11:40:41;19.88;;;14.07;;
26474;SDS011;14161;52.270;10.334;2023-04-15T11:43:08;26.67;;;19.90;;
26474;SDS011;14161;52.270;10.334;2023-04-15T11:48:21;21.35;;;14.82;;
26474;SDS011;14161;52.270;10.334;2023-04-15T11:50:52;22.33;;;14.75;;
26474;SDS011;14161;52.270;10.334;2023-04-15T11:53:19;22.05;;;15.48;;
26474;SDS011;14161;52.270;10.334;2023-04-15T11:55:48;23.42;;;15.90;;
26474;SDS011;14161;52.270;10.334;2023-04-15T11:58:16;21.52;;;15.30;;
26474;SDS011;14161;52.270;10.334;2023-04-15T12:00:47;22.92;;;14.93;;
26474;SDS011;14161;52.270;10.334;2023-04-15T12:03:17;22.98;;;15.70;;
26474;SDS011;14161;52.270;10.334;2023-04-15T12:14:12;25.38;;;16.25;;
26474;SDS011;14161;52.270;10.334;2023-04-15T12:16:45;24.95;;;16.65;;
26474;SDS011;14161;52.270;10.334;2023-04-15T12:19:25;28.65;;;18.02;;
26474;SDS011;14161;52.270;10.334;2023-04-15T12:22:00;27.83;;;17.85;;
26474;SDS011;14161;52.270;10.334;2023-04-15T12:24:29;24.08;;;15.77;;
26474;SDS011;14161;52.270;10.334;2023-04-15T12:26:56;28.83;;;17.60;;
26474;SDS011;14161;52.270;10.334;2023-04-15T12:29:26;22.60;;;15.35;;
26474;SDS011;14161;52.270;10.334;2023-04-15T12:31:54;25.15;;;17.52;;
26474;SDS011;14161;52.270;10.334;2023-04-15T12:34:28;24.60;;;16.52;;
26474;SDS011;14161;52.270;10.334;2023-04-15T12:37:01;26.52;;;17.85;;
26474;SDS011;14161;52.270;10.334;2023-04-15T12:39:28;25.02;;;16.45;;
26474;SDS011;14161;52.270;10.334;2023-04-15T12:41:55;24.95;;;15.80;;
26474;SDS011;14161;52.270;10.334;2023-04-15T12:44:27;25.70;;;17.25;;
26474;SDS011;14161;52.270;10.334;2023-04-15T12:46:53;25.67;;;16.42;;
26474;SDS011;14161;52.270;10.334;2023-04-15T12:49:22;25.23;;;15.93;;
26474;SDS011;14161;52.270;10.334;2023-04-15T12:51:53;28.25;;;16.77;;
26474;SDS011;14161;52.270;10.334;2023-04-15T12:54:23;25.13;;;16.17;;
26474;SDS011;14161;52.270;10.334;2023-04-15T12:56:52;27.55;;;17.25;;
26474;SDS011;14161;52.270;10.334;2023-04-15T12:59:18;30.17;;;19.10;;
26474;SDS011;14161;52.270;10.334;2023-04-15T13:01:48;28.25;;;17.63;;
26474;SDS011;14161;52.270;10.334;2023-04-15T13:04:17;24.88;;;16.23;;
26474;SDS011;14161;52.270;10.334;2023-04-15T13:06:43;26.02;;;16.52;;
26474;SDS011;14161;52.270;10.334;2023-04-15T13:09:10;28.23;;;17.67;;
26474;SDS011;14161;52.270;10.334;2023-04-15T13:11:42;26.92;;;17.70;;
26474;SDS011;14161;52.270;10.334;2023-04-15T13:14:08;24.77;;;16.73;;
26474;SDS011;14161;52.270;10.334;2023-04-15T13:16:37;26.92;;;18.02;;
26474;SDS011;14161;52.270;10.334;2023-04-15T13:19:03;29.77;;;18.92;;
26474;SDS011;14161;52.270;10.334;2023-04-15T13:21:34;30.88;;;19.33;;
26474;SDS011;14161;52.270;10.334;2023-04-15T13:24:01;26.40;;;17.17;;
26474;SDS011;14161;52.270;10.334;2023-04-15T13:26:26;27.48;;;17.75;;
26474;SDS011;14161;52.270;10.334;2023-04-15T13:28:55;23.05;;;15.57;;
26474;SDS011;14161;52.270;10.334;2023-04-15T13:31:21;32.33;;;19.38;;
26474;SDS011;14161;52.270;10.334;2023-04-15T13:33:50;27.60;;;18.08;;
26474;SDS011;14161;52.270;10.334;2023-04-15T13:36:15;24.55;;;16.67;;
26474;SDS011;14161;52.270;10.334;2023-04-15T13:38:41;24.35;;;15.75;;
26474;SDS011;14161;52.270;10.334;2023-04-15T13:41:06;24.33;;;16.02;;
26474;SDS011;14161;52.270;10.334;2023-04-15T13:43:32;26.10;;;16.77;;
26474;SDS011;14161;52.270;10.334;2023-04-15T13:45:58;25.17;;;16.52;;
26474;SDS011;14161;52.270;10.334;2023-04-15T13:48:23;27.98;;;18.13;;
26474;SDS011;14161;52.270;10.334;2023-04-15T13:50:49;23.55;;;16.48;;
26474;SDS011;14161;52.270;10.334;2023-04-15T13:53:15;23.63;;;16.52;;
26474;SDS011;14161;52.270;10.334;2023-04-15T13:55:40;24.38;;;17.00;;
26474;SDS011;14161;52.270;10.334;2023-04-15T13:58:10;26.35;;;17.15;;
26474;SDS011;14161;52.270;10.334;2023-04-15T14:00:35;23.88;;;16.65;;
26474;SDS011;14161;52.270;10.334;2023-04-15T14:03:01;31.20;;;18.23;;
26474;SDS011;14161;52.270;10.334;2023-04-15T14:05:26;27.83;;;18.80;;
26474;SDS011;14161;52.270;10.334;2023-04-15T14:07:52;25.50;;;17.48;;
26474;SDS011;14161;52.270;10.334;2023-04-15T14:10:17;22.60;;;14.93;;
26474;SDS011;14161;52.270;10.334;2023-04-15T14:12:43;25.85;;;17.15;;
26474;SDS011;14161;52.270;10.334;2023-04-15T14:15:08;23.45;;;16.27;;
26474;SDS011;14161;52.270;10.334;2023-04-15T14:17:34;24.95;;;17.17;;
26474;SDS011;14161;52.270;10.334;2023-04-15T14:20:00;24.30;;;17.45;;
26474;SDS011;14161;52.270;10.334;2023-04-15T14:22:25;20.90;;;15.05;;
26474;SDS011;14161;52.270;10.334;2023-04-15T14:24:53;23.15;;;15.88;;
26474;SDS011;14161;52.270;10.334;2023-04-15T14:27:22;21.00;;;15.52;;
26474;SDS011;14161;52.270;10.334;2023-04-15T14:29:51;25.15;;;16.30;;
26474;SDS011;14161;52.270;10.334;2023-04-15T14:32:30;21.33;;;15.55;;
26474;SDS011;14161;52.270;10.334;2023-04-15T14:35:03;22.25;;;15.68;;
26474;SDS011;14161;52.270;10.334;2023-04-15T14:37:29;20.63;;;15.32;;
26474;SDS011;14161;52.270;10.334;2023-04-15T14:39:55;21.85;;;15.68;;
26474;SDS011;14161;52.270;10.334;2023-04-15T14:42:23;20.65;;;14.65;;
26474;SDS011;14161;52.270;10.334;2023-04-15T14:44:51;22.27;;;16.70;;